createdAt,value
2018-12-16T04:13:58.351Z,-0.40
2018-12-16T04:16:30.684Z,-0.45
2018-12-16T04:19:02.873Z,-0.22
2018-12-16T04:21:35.144Z,-0.15
2018-12-16T04:24:07.356Z,-0.33
2018-12-16T04:26:39.804Z,-0.26
2018-12-16T04:29:11.748Z,-0.33
2018-12-16T04:31:43.959Z,-0.27
2018-12-16T04:34:15.958Z,-0.48
2018-12-16T04:36:48.106Z,-0.39
2018-12-16T04:39:20.381Z,-0.44
2018-12-16T04:41:52.338Z,-0.77
2018-12-16T04:44:24.311Z,-0.75
2018-12-16T04:46:56.410Z,-0.81
2018-12-16T04:49:28.573Z,-0.83
2018-12-16T04:52:00.911Z,-0.54
2018-12-16T04:54:33.060Z,-0.49
2018-12-16T04:57:05.375Z,-0.69
2018-12-16T04:59:38.551Z,-0.66
2018-12-16T05:02:10.825Z,-0.66
2018-12-16T05:04:42.951Z,-0.89
2018-12-16T05:07:15.104Z,-0.93
2018-12-16T05:09:47.214Z,-0.75
2018-12-16T05:12:19.250Z,-0.56
2018-12-16T05:14:50.929Z,-0.68
2018-12-16T05:17:23.354Z,-0.75
2018-12-16T05:19:55.386Z,-0.95
2018-12-16T05:22:27.473Z,-0.93
2018-12-16T05:24:59.589Z,-0.89
2018-12-16T05:27:31.448Z,-1.02
2018-12-16T05:30:03.539Z,-0.83
2018-12-16T05:32:35.617Z,-0.72
2018-12-16T05:35:08.155Z,-0.93
2018-12-16T05:37:40.204Z,-0.75
2018-12-16T05:40:12.223Z,-0.78
2018-12-16T05:42:44.331Z,-0.74
2018-12-16T05:45:16.438Z,-0.78
2018-12-16T05:47:48.300Z,-0.81
2018-12-16T05:50:20.258Z,-0.77
2018-12-16T05:52:52.263Z,-0.76
2018-12-16T05:55:24.657Z,-0.69
2018-12-16T05:57:56.691Z,-0.52
2018-12-16T06:00:28.729Z,-0.50
2018-12-16T06:03:00.537Z,-0.66
2018-12-16T06:05:32.852Z,-0.69
2018-12-16T06:08:04.888Z,-0.68
2018-12-16T06:10:37.094Z,-0.72
2018-12-16T06:13:08.844Z,-0.66
2018-12-16T06:15:40.913Z,-0.69
2018-12-16T06:18:12.871Z,-0.73
2018-12-16T06:20:45.434Z,-0.71
2018-12-16T06:23:18.424Z,-0.80
2018-12-16T06:25:50.375Z,-0.71
2018-12-16T06:28:22.610Z,-0.74
2018-12-16T06:30:56.063Z,-0.68
2018-12-16T06:33:28.112Z,-0.76
2018-12-16T06:36:00.994Z,-0.77
2018-12-16T06:38:34.468Z,-0.92
2018-12-16T06:41:07.562Z,-0.95
2018-12-16T06:43:40.687Z,-0.83
2018-12-16T06:46:13.343Z,-0.77
2018-12-16T06:48:46.593Z,-0.97
2018-12-16T06:51:19.413Z,-0.95
2018-12-16T06:53:52.637Z,-0.96
2018-12-16T06:56:24.645Z,-1.07
2018-12-16T06:58:56.562Z,-1.09
2018-12-16T07:01:28.715Z,-1.04
2018-12-16T07:04:00.730Z,-1.12
2018-12-16T07:06:32.855Z,-1.07
2018-12-16T07:09:06.108Z,-1.09
2018-12-16T07:11:38.416Z,-1.13
2018-12-16T07:14:10.540Z,-1.10
2018-12-16T07:16:42.858Z,-1.23
2018-12-16T07:19:15.066Z,-1.26
2018-12-16T07:21:47.240Z,-1.35
2018-12-16T07:24:19.285Z,-1.42
2018-12-16T07:26:52.030Z,-1.40
2018-12-16T07:29:25.664Z,-1.51
2018-12-16T07:31:57.659Z,-1.48
2018-12-16T07:34:31.297Z,-1.44
2018-12-16T07:37:04.298Z,-1.37
2018-12-16T07:39:36.831Z,-1.52
2018-12-16T07:42:09.045Z,-1.66
2018-12-16T07:44:42.177Z,-1.61
2018-12-16T07:47:14.877Z,-1.52
2018-12-16T07:49:48.141Z,-1.55
2018-12-16T07:52:20.992Z,-1.58
2018-12-16T07:54:53.956Z,-1.64
2018-12-16T07:57:25.906Z,-1.65
2018-12-16T07:59:58.136Z,-1.69
2018-12-16T08:02:30.889Z,-1.74
2018-12-16T08:05:03.238Z,-1.75
2018-12-16T08:07:36.205Z,-1.76
2018-12-16T08:10:09.772Z,-1.79
2018-12-16T08:12:42.040Z,-1.82
2018-12-16T08:15:14.275Z,-1.86
2018-12-16T08:17:47.843Z,-1.95
2018-12-16T08:20:21.703Z,-1.90
2018-12-16T08:22:54.301Z,-1.89
2018-12-16T08:25:27.853Z,-1.93
2018-12-16T08:28:00.946Z,-1.93
2018-12-16T08:30:33.666Z,-1.85
2018-12-16T08:33:06.539Z,-1.78
2018-12-16T08:35:38.677Z,-1.88
2018-12-16T08:38:10.921Z,-1.96
2018-12-16T08:40:44.444Z,-2.05
2018-12-16T08:43:37.907Z,-2.13
2018-12-16T08:46:15.835Z,-2.11
2018-12-16T08:48:47.926Z,-2.07
2018-12-16T08:51:20.169Z,-2.09
2018-12-16T08:53:52.495Z,-2.24
2018-12-16T08:56:24.598Z,-2.20
2018-12-16T08:58:57.136Z,-2.19
2018-12-16T09:01:29.436Z,-2.13
2018-12-16T09:04:01.685Z,-2.15
2018-12-16T09:06:33.853Z,-2.25
2018-12-16T09:09:07.619Z,-2.14
2018-12-16T09:11:39.983Z,-2.13
2018-12-16T09:14:12.238Z,-2.17
2018-12-16T09:16:44.302Z,-2.21
2018-12-16T09:19:16.255Z,-2.20
2018-12-16T09:21:48.441Z,-2.22
2018-12-16T09:24:20.544Z,-2.27
2018-12-16T09:26:52.870Z,-2.29
2018-12-16T09:29:25.379Z,-2.29
2018-12-16T09:31:57.734Z,-2.31
2018-12-16T09:34:29.611Z,-2.42
2018-12-16T09:37:01.748Z,-2.43
2018-12-16T09:39:33.668Z,-2.33
2018-12-16T09:42:05.930Z,-2.35
2018-12-16T09:44:37.992Z,-2.35
2018-12-16T09:47:10.054Z,-2.39
2018-12-16T09:49:41.963Z,-2.48
2018-12-16T09:52:14.505Z,-2.37
2018-12-16T09:54:46.512Z,-2.41
2018-12-16T09:57:18.986Z,-2.37
2018-12-16T09:59:51.321Z,-2.34
2018-12-16T10:02:23.752Z,-2.57
2018-12-16T10:04:56.016Z,-2.61
2018-12-16T10:07:27.990Z,-2.55
2018-12-16T10:10:00.069Z,-2.50
2018-12-16T10:12:32.164Z,-2.46
2018-12-16T10:15:04.917Z,-2.53
2018-12-16T10:17:37.623Z,-2.60
2018-12-16T10:20:11.040Z,-2.71
2018-12-16T10:22:43.495Z,-2.66
2018-12-16T10:25:15.704Z,-2.60
2018-12-16T10:27:48.344Z,-2.63
2018-12-16T10:30:21.377Z,-2.67
2018-12-16T10:33:06.296Z,-2.74
2018-12-16T10:35:49.205Z,-2.67
2018-12-16T10:38:43.530Z,-2.78
2018-12-16T10:41:30.238Z,-2.72
2018-12-16T10:44:12.113Z,-2.78
2018-12-16T10:50:07.263Z,-3.02
2018-12-16T10:52:39.647Z,-3.09
2018-12-16T10:55:13.799Z,-3.16
2018-12-16T10:57:45.911Z,-3.09
2018-12-16T11:00:17.789Z,-3.09
2018-12-16T11:02:49.856Z,-3.14
2018-12-16T11:05:22.571Z,-3.11
2018-12-16T11:07:55.252Z,-3.15
2018-12-16T11:10:27.347Z,-3.21
2018-12-16T11:12:59.735Z,-3.34
2018-12-16T11:15:31.862Z,-3.38
2018-12-16T11:18:04.194Z,-3.21
2018-12-16T11:20:37.602Z,-3.20
2018-12-16T11:23:09.678Z,-3.19
2018-12-16T11:25:42.314Z,-3.15
2018-12-16T11:28:14.692Z,-3.28
2018-12-16T11:30:47.991Z,-3.17
2018-12-16T11:33:20.024Z,-3.24
2018-12-16T11:35:52.952Z,-3.19
2018-12-16T11:38:25.273Z,-3.24
2018-12-16T11:40:58.078Z,-3.27
2018-12-16T11:43:30.294Z,-3.20
2018-12-16T11:46:02.601Z,-3.26
2018-12-16T11:48:34.603Z,-3.23
2018-12-16T11:51:07.214Z,-3.44
2018-12-16T11:53:39.113Z,-3.46
2018-12-16T11:56:11.144Z,-3.53
2018-12-16T11:58:43.241Z,-3.46
2018-12-16T12:01:15.399Z,-3.44
2018-12-16T12:03:47.795Z,-3.48
2018-12-16T12:06:19.923Z,-3.56
2018-12-16T12:08:52.357Z,-3.53
2018-12-16T12:11:25.140Z,-3.46
2018-12-16T12:13:58.200Z,-3.49
2018-12-16T12:16:30.516Z,-3.52
2018-12-16T12:19:02.653Z,-3.68
2018-12-16T12:21:35.164Z,-3.78
2018-12-16T12:24:08.762Z,-3.74
2018-12-16T12:26:41.015Z,-3.82
2018-12-16T12:29:13.293Z,-3.91
2018-12-16T12:31:45.391Z,-3.95
2018-12-16T12:34:18.429Z,-3.90
2018-12-16T12:36:51.357Z,-3.92
2018-12-16T12:39:23.916Z,-3.94
2018-12-16T12:41:56.589Z,-3.85
2018-12-16T12:44:29.998Z,-3.93
2018-12-16T12:47:02.440Z,-4.01
2018-12-16T12:49:34.961Z,-4.07
2018-12-16T12:52:07.586Z,-4.06
2018-12-16T12:54:40.890Z,-4.15
2018-12-16T12:57:13.999Z,-4.18
2018-12-16T13:00:00.548Z,-4.11
2018-12-16T13:02:41.168Z,-4.18
2018-12-16T13:05:14.754Z,-4.14
2018-12-16T13:07:47.545Z,-4.24
2018-12-16T13:10:20.431Z,-4.33
2018-12-16T13:12:52.685Z,-4.30
2018-12-16T13:15:25.671Z,-4.20
2018-12-16T13:17:57.853Z,-4.22
2018-12-16T13:20:30.073Z,-4.29
2018-12-16T13:23:02.564Z,-4.30
2018-12-16T13:25:50.353Z,-4.38
2018-12-16T13:28:22.853Z,-4.43
2018-12-16T13:30:55.161Z,-4.50
2018-12-16T13:33:27.578Z,-4.52
2018-12-16T13:36:00.054Z,-4.59
2018-12-16T13:38:32.517Z,-4.48
2018-12-16T13:41:06.163Z,-4.69
2018-12-16T13:43:38.595Z,-4.60
2018-12-16T13:46:10.756Z,-4.74
2018-12-16T13:48:43.163Z,-4.75
2018-12-16T13:51:16.270Z,-4.76
2018-12-16T13:53:48.943Z,-4.85
2018-12-16T13:56:21.326Z,-5.00
2018-12-16T13:58:53.859Z,-4.95
2018-12-16T14:01:26.096Z,-5.15
2018-12-16T14:03:59.513Z,-5.21
2018-12-16T14:06:31.981Z,-5.28
2018-12-16T14:09:05.213Z,-5.23
2018-12-16T14:11:38.478Z,-5.29
2018-12-16T14:14:10.866Z,-5.32
2018-12-16T14:16:43.295Z,-5.33
2018-12-16T14:19:15.992Z,-5.56
2018-12-16T14:21:48.380Z,-5.68
2018-12-16T14:24:21.027Z,-5.53
2018-12-16T14:26:53.224Z,-5.59
2018-12-16T14:29:26.259Z,-5.64
2018-12-16T14:31:58.235Z,-5.52
2018-12-16T14:34:30.166Z,-5.55
2018-12-16T14:37:02.281Z,-5.61
2018-12-16T14:39:34.697Z,-5.62
2018-12-16T14:42:06.856Z,-5.65
2018-12-16T14:44:39.077Z,-5.56
2018-12-16T14:47:11.348Z,-5.82
2018-12-16T14:49:43.360Z,-5.84
2018-12-16T14:52:15.408Z,-5.82
2018-12-16T14:54:48.691Z,-5.84
2018-12-16T14:57:21.784Z,-5.95
2018-12-16T14:59:55.585Z,-5.96
2018-12-16T15:02:27.682Z,-5.79
2018-12-16T15:05:00.640Z,-5.88
2018-12-16T15:07:33.145Z,-5.96
2018-12-16T15:10:06.781Z,-5.98
2018-12-16T15:12:38.938Z,-6.00
2018-12-16T15:15:11.385Z,-5.94
2018-12-16T15:17:45.448Z,-5.92
2018-12-16T15:20:17.739Z,-6.00
2018-12-16T15:22:50.179Z,-5.91
2018-12-16T15:25:22.663Z,-5.81
2018-12-16T15:27:54.704Z,-5.76
2018-12-16T15:30:26.963Z,-5.68
2018-12-16T15:32:59.151Z,-5.78
2018-12-16T15:35:31.685Z,-5.77
2018-12-16T15:38:04.208Z,-5.80
2018-12-16T15:40:36.509Z,-5.78
2018-12-16T15:43:08.942Z,-5.81
2018-12-16T15:45:41.639Z,-5.78
2018-12-16T15:48:14.271Z,-5.80
2018-12-16T15:50:47.874Z,-5.79
2018-12-16T15:53:20.165Z,-5.94
2018-12-16T15:55:52.347Z,-5.87
2018-12-16T15:58:24.711Z,-5.80
2018-12-16T16:00:56.964Z,-5.77
2018-12-16T16:03:29.097Z,-5.74
2018-12-16T16:06:01.714Z,-5.72
2018-12-16T16:08:33.657Z,-5.78
2018-12-16T16:11:05.820Z,-5.73
2018-12-16T16:13:38.413Z,-5.66
2018-12-16T16:16:10.888Z,-5.75
2018-12-16T16:18:43.741Z,-5.81
2018-12-16T16:21:16.338Z,-5.72
2018-12-16T16:23:48.662Z,-5.80
2018-12-16T16:26:20.433Z,-5.77
2018-12-16T16:28:52.939Z,-5.81
2018-12-16T16:31:25.515Z,-5.79
2018-12-16T16:33:57.691Z,-5.76
2018-12-16T16:36:29.920Z,-5.74
2018-12-16T16:39:03.806Z,-5.86
2018-12-16T16:41:36.426Z,-5.82
2018-12-16T16:44:08.726Z,-5.87
2018-12-16T16:46:41.195Z,-5.86
2018-12-16T16:49:13.495Z,-5.94
2018-12-16T16:51:45.905Z,-6.03
2018-12-16T16:54:18.036Z,-6.13
2018-12-16T16:56:50.413Z,-5.86
2018-12-16T16:59:22.760Z,-5.79
2018-12-16T17:01:55.430Z,-5.81
2018-12-16T17:04:27.987Z,-5.94
2018-12-16T17:07:00.556Z,-5.87
2018-12-16T17:09:32.604Z,-6.00
2018-12-16T17:12:04.842Z,-5.98
2018-12-16T17:14:36.740Z,-5.86
2018-12-16T17:17:08.864Z,-6.06
2018-12-16T17:19:41.167Z,-6.06
2018-12-16T17:22:13.455Z,-6.06
2018-12-16T17:24:45.748Z,-6.09
2018-12-16T17:29:48.834Z,-6.08
2018-12-16T17:32:21.366Z,-6.10
2018-12-16T17:34:54.067Z,-6.14
2018-12-16T17:37:26.334Z,-6.20
2018-12-16T17:39:58.530Z,-6.25
2018-12-16T17:42:30.846Z,-6.31
2018-12-16T17:45:02.994Z,-6.33
2018-12-16T17:47:35.547Z,-6.38
2018-12-16T17:50:07.819Z,-6.38
2018-12-16T17:52:40.124Z,-6.21
2018-12-16T17:55:12.459Z,-6.28
2018-12-16T17:57:44.696Z,-6.16
2018-12-16T18:00:17.494Z,-6.05
2018-12-16T18:02:50.276Z,-6.11
2018-12-16T18:05:22.679Z,-6.19
2018-12-16T18:07:55.659Z,-6.11
2018-12-16T18:10:28.545Z,-6.16
2018-12-16T18:13:01.810Z,-6.14
2018-12-16T18:15:33.940Z,-6.18
2018-12-16T18:18:06.534Z,-6.08
2018-12-16T18:20:39.038Z,-6.07
2018-12-16T18:23:11.637Z,-6.01
2018-12-16T18:25:43.929Z,-6.01
2018-12-16T18:28:16.221Z,-6.02
2018-12-16T18:30:48.505Z,-6.01
2018-12-16T18:33:21.175Z,-6.16
2018-12-16T18:35:53.599Z,-6.26
2018-12-16T18:38:26.201Z,-6.21
2018-12-16T18:40:58.525Z,-6.30
2018-12-16T18:43:30.754Z,-6.29
2018-12-16T18:46:03.426Z,-6.35
2018-12-16T18:48:35.860Z,-6.28
2018-12-16T18:51:08.467Z,-6.36
2018-12-16T18:53:40.907Z,-6.34
2018-12-16T18:56:12.795Z,-6.26
2018-12-16T18:58:45.215Z,-6.34
2018-12-16T19:01:17.747Z,-6.38
2018-12-16T19:03:49.532Z,-6.39
2018-12-16T19:06:22.479Z,-6.45
2018-12-16T19:08:54.822Z,-6.57
2018-12-16T19:11:27.752Z,-6.75
2018-12-16T19:14:00.061Z,-6.76
2018-12-16T19:16:32.642Z,-6.92
2018-12-16T19:19:05.594Z,-7.03
2018-12-16T19:21:38.115Z,-6.94
2018-12-16T19:24:10.639Z,-6.94
2018-12-16T19:26:44.053Z,-6.77
2018-12-16T19:29:17.540Z,-6.53
2018-12-16T19:31:51.085Z,-6.52
2018-12-16T19:34:23.961Z,-6.52
2018-12-16T19:36:56.744Z,-6.47
2018-12-16T19:39:29.289Z,-6.46
2018-12-16T19:42:02.203Z,-6.50
2018-12-16T19:44:36.018Z,-6.52
2018-12-16T19:47:08.529Z,-6.36
2018-12-16T19:49:41.177Z,-6.32
2018-12-16T19:52:14.261Z,-6.32
2018-12-16T19:54:47.044Z,-6.25
2018-12-16T19:57:19.881Z,-6.28
2018-12-16T19:59:52.813Z,-6.25
2018-12-16T20:02:25.188Z,-6.35
2018-12-16T20:04:58.394Z,-6.51
2018-12-16T20:07:32.096Z,-6.58
2018-12-16T20:10:04.753Z,-6.43
2018-12-16T20:12:37.665Z,-6.41
2018-12-16T20:15:10.383Z,-6.51
2018-12-16T20:17:43.126Z,-6.57
2018-12-16T20:20:15.385Z,-6.58
2018-12-16T20:25:33.862Z,-6.59
2018-12-16T20:28:06.284Z,-6.67
2018-12-16T20:30:38.598Z,-6.60
2018-12-16T20:33:11.035Z,-6.57
2018-12-16T20:35:44.030Z,-6.49
2018-12-16T20:38:16.111Z,-6.57
2018-12-16T20:40:48.277Z,-6.62
2018-12-16T20:43:20.059Z,-6.56
2018-12-16T20:45:52.421Z,-6.67
2018-12-16T20:48:24.505Z,-6.71
2018-12-16T20:50:56.734Z,-6.73
2018-12-16T20:53:29.393Z,-6.79
2018-12-16T20:56:01.715Z,-6.86
2018-12-16T20:58:34.260Z,-6.87
2018-12-16T21:01:06.281Z,-6.88
2018-12-16T21:03:37.944Z,-6.91
2018-12-16T21:06:09.989Z,-7.06
2018-12-16T21:08:42.256Z,-7.09
2018-12-16T21:11:14.527Z,-7.09
2018-12-16T21:13:46.355Z,-6.97
2018-12-16T21:16:18.291Z,-6.95
2018-12-16T21:18:51.263Z,-6.86
2018-12-16T21:21:23.178Z,-6.96
2018-12-16T21:23:55.064Z,-6.98
2018-12-16T21:26:27.043Z,-6.93
2018-12-16T21:28:58.935Z,-7.05
2018-12-16T21:31:30.784Z,-6.87
2018-12-16T21:34:02.835Z,-6.90
2018-12-16T21:36:34.875Z,-6.92
2018-12-16T21:39:07.923Z,-6.96
2018-12-16T21:41:40.173Z,-7.20
2018-12-16T21:44:12.077Z,-7.17
2018-12-16T21:46:43.973Z,-7.26
2018-12-16T21:49:16.017Z,-7.20
2018-12-16T21:51:47.736Z,-7.17
2018-12-16T21:54:19.617Z,-7.06
2018-12-16T21:56:51.655Z,-7.07
2018-12-16T21:59:23.883Z,-7.11
2018-12-16T22:01:55.852Z,-7.25
2018-12-16T22:04:27.961Z,-7.39
2018-12-16T22:06:59.773Z,-7.30
2018-12-16T22:09:31.787Z,-7.29
2018-12-16T22:12:03.810Z,-7.15
2018-12-16T22:14:35.753Z,-7.14
2018-12-16T22:17:07.661Z,-7.30
2018-12-16T22:19:39.593Z,-7.38
2018-12-16T22:22:11.527Z,-7.22
2018-12-16T22:24:44.227Z,-7.21
2018-12-16T22:27:16.070Z,-7.26
2018-12-16T22:29:48.203Z,-7.21
2018-12-16T22:32:20.325Z,-7.15
2018-12-16T22:34:52.303Z,-7.18
2018-12-16T22:37:24.120Z,-7.21
2018-12-16T22:39:55.980Z,-7.20
2018-12-16T22:42:27.962Z,-7.25
2018-12-16T22:44:59.976Z,-7.41
2018-12-16T22:47:31.903Z,-7.40
2018-12-16T22:50:03.765Z,-7.29
2018-12-16T22:52:36.252Z,-7.42
2018-12-16T22:55:08.399Z,-7.44
2018-12-16T22:57:46.902Z,-7.33
2018-12-16T23:00:16.010Z,-7.37
2018-12-16T23:02:48.663Z,-7.37
2018-12-16T23:05:20.609Z,-7.50
2018-12-16T23:07:53.032Z,-7.39
2018-12-16T23:10:25.580Z,-7.42
2018-12-16T23:12:57.533Z,-7.37
2018-12-16T23:15:29.640Z,-7.32
2018-12-16T23:18:01.616Z,-7.35
2018-12-16T23:20:33.492Z,-7.38
2018-12-16T23:23:05.493Z,-7.39
2018-12-16T23:25:37.499Z,-7.42
2018-12-16T23:28:09.445Z,-7.29
2018-12-16T23:30:41.439Z,-7.32
2018-12-16T23:33:13.357Z,-7.36
2018-12-16T23:35:45.487Z,-7.23
2018-12-16T23:38:17.389Z,-7.28
2018-12-16T23:40:49.293Z,-7.10
2018-12-16T23:43:21.279Z,-6.97
2018-12-16T23:45:53.166Z,-6.90
2018-12-16T23:48:25.155Z,-6.78
2018-12-16T23:50:57.876Z,-6.86
2018-12-16T23:53:29.679Z,-6.90
2018-12-16T23:56:01.646Z,-6.60
2018-12-16T23:58:33.948Z,-6.47
